Minot, North Dakota
Current Conditions -  °F | °C
As of 9:06 PM on Monday 22 Dec 2014 (Local Time) from KMOT Reporting Station
Haze Haze  
Wind Chill: -7°   Ceiling: 200
Heat Index: -1°   Visibility: 2.5mi
Dew Point: -2°   Wind: 16mph
Humidity: 92%   Direction: 330°NNW
Pressure: 29.79"   Gusts: NA
Location:  48.24°N, 101.29°W
Report Text: KMOT 230306Z 33014KT 2 1/2SM BR OVC002 M01/M02 A2979 RMK AO2 I1000 T10111022
Loading
Personal Weather Stations






























Interactive Weather Map New forecast layout! Learn more

10-Day Weather Forecast

Advertisements
Track Severe Weather on mobile